LGAVLGKO

Guest
Details From LGAV - Athens Intl Airport Elefterios Venizel
To LGKO - KOS
Flight Number -
Tags generated
Created
Modified
Stats Distance 165 nm / 306 km
Max Altitude 19,700 ft / 6,005 m
Waypoints 3
Social Downloads 0
Likes 0
Share

Download

Looking for another format? Having issues loading an existing format? Contact us
Advertisement - Login to hide

Notes

Basic altitude profile: - Ascent Rate: 2500ft/min - Ascent Speed: 250kts - Cruise Altitude: 16000ft - Cruise Speed: 420kts - Descent Rate: 1500ft/min - Descent Speed: 250kts Options: - Use NATs: yes - Use PACOTS: yes - Use low airways: yes - Use high airways: yes

Route

LGAV MKN LGKO

ID Type Via Altitude (ft/m) Position (lat/lon) Dist (leg/tot) Name
O LGAV APT - 0 / 0 37.93636 / 23.94447 - / 0 nm Athens Intl Airport Elefterios Venizel
MKN VOR - 19,700 / 6,005 37.44027 / 25.34449 72 / 72 nm MIKONOS VOR-DME
O LGKO APT - 0 / 0 36.79440 / 27.09076 92 / 165 nm KOS

Altitude Profile

Advertisement - Login to hide

Weather


0- 5 10 15 20 25 30 35+ Temperature / °C

Clouds and Precipitation
Forecast for 2020-10-31 18:00 UTC. Updated 4 hours ago

Ground ~20,000 ft ~40,000 ft Winds

LGAV

Details ICAO LGAV (ATH)
Name Athens "Eleftherios Venizelos"
Region Greece
Timezone Europe/Athens (UTC+2.0)
Stats Elevation 308 ft / 94 m (AMSL)
Location 37.936700° 23.944500°
Runways 2
Magnetic Variation 4.765° E

METAR

LGAV 311920Z VRB02KT 9999 FEW025 14/07 Q1019 NOSIG

Decode

TAF

TAF TAF LGAV 311700Z 3118/0118 33005KT 9999 FEW025 BECMG 0107/0109 03015KT BECMG 0116/0118 VRB05KT

Decode

Departure Runways

ID Width Length Bearing (true/mag) Surface Threshold Overrun Markings Lighting
03L 151 ft / 46 m 12,478 ft / 3,803 m 36.86° / 32.09° ASPHALT 984 ft / 300 m 394 ft / 120 m PREC-APP CENTERLINE EDGE THRESHOLD ALSF-II TDZ REIL-OMNI
03R 151 ft / 46 m 13,135 ft / 4,004 m 36.87° / 32.11° ASPHALT 984 ft / 300 m 394 ft / 120 m PREC-APP CENTERLINE EDGE THRESHOLD ALSF-II TDZ REIL-OMNI
21L 151 ft / 46 m 13,135 ft / 4,004 m 216.89° / 212.12° ASPHALT 984 ft / 300 m 394 ft / 120 m PREC-APP CENTERLINE EDGE THRESHOLD ALSF-II TDZ REIL-OMNI
21R 151 ft / 46 m 12,478 ft / 3,803 m 216.87° / 212.11° ASPHALT 984 ft / 300 m 394 ft / 120 m PREC-APP CENTERLINE EDGE THRESHOLD ALSF-II TDZ REIL-OMNI

LGKO

Details ICAO LGKO (KGS)
Name Kos
Region Greece
Timezone Europe/Athens (UTC+2.0)
Stats Elevation 412 ft / 126 m (AMSL)
Location 36.794600° 27.091100°
Runways 1
Magnetic Variation 4.998° E

METAR

LGKO 311850Z 34014G24KT CAVOK 18/06 Q1016

Decode

TAF

TAF LGKO 311700Z 3118/0118 35016KT 9999 FEW018 TEMPO 3118/3120 35015G25KT TEMPO 0110/0118 35016G26KT

Decode

Destination Runways

ID Width Length Bearing (true/mag) Surface Threshold Overrun Markings Lighting
14 148 ft / 45 m 7,882 ft / 2,402 m 148.07° / 143.07° ASPHALT 0 ft / 0 m 0 ft / 0 m APP EDGE THRESHOLD MALSF
32 148 ft / 45 m 7,882 ft / 2,402 m 328.08° / 323.08° ASPHALT 0 ft / 0 m 0 ft / 0 m APP EDGE THRESHOLD MALSF

Popular Alternatives